createdAt,value
2022-10-24T00:04:15.019Z,11.54
2022-10-24T00:09:18.040Z,11.53
2022-10-24T00:14:21.333Z,11.55
2022-10-24T00:19:24.450Z,11.55
2022-10-24T00:24:27.755Z,11.54
2022-10-24T00:29:30.860Z,11.56
2022-10-24T00:34:33.965Z,11.57
2022-10-24T00:39:37.068Z,11.61
2022-10-24T00:44:42.940Z,11.68
2022-10-24T00:50:03.154Z,11.70
2022-10-24T00:55:08.990Z,11.67
2022-10-24T01:00:23.120Z,11.65
2022-10-24T01:05:37.228Z,11.57
2022-10-24T01:11:01.859Z,11.54
2022-10-24T01:16:27.286Z,11.56
2022-10-24T01:22:15.242Z,11.57
2022-10-24T01:28:01.052Z,11.61
2022-10-24T01:33:27.914Z,11.59
2022-10-24T01:38:33.988Z,11.57
2022-10-24T01:43:46.234Z,11.56
2022-10-24T01:48:59.146Z,11.57
2022-10-24T01:54:04.479Z,11.57
2022-10-24T01:59:29.840Z,11.60
2022-10-24T02:04:38.084Z,11.58
2022-10-24T02:09:45.753Z,11.60
2022-10-24T02:15:16.026Z,11.58
2022-10-24T02:20:32.638Z,11.56
2022-10-24T02:25:41.189Z,11.56
2022-10-24T02:30:56.261Z,11.57
2022-10-24T02:36:01.165Z,11.59
2022-10-24T02:41:11.674Z,11.63
2022-10-24T02:46:16.919Z,11.63
2022-10-24T02:51:25.374Z,11.63
2022-10-24T02:56:30.381Z,11.60
2022-10-24T03:01:33.460Z,11.61
2022-10-24T03:06:37.588Z,11.63
2022-10-24T03:11:41.485Z,11.68
2022-10-24T03:16:44.487Z,11.70
2022-10-24T03:21:47.596Z,11.69
2022-10-24T03:26:52.464Z,11.70
2022-10-24T03:31:55.449Z,11.70
2022-10-24T03:36:58.752Z,11.68
2022-10-24T03:42:02.273Z,11.69
2022-10-24T03:47:05.396Z,11.73
2022-10-24T03:52:09.139Z,11.70
2022-10-24T03:57:12.273Z,11.69
2022-10-24T04:02:15.411Z,11.70
2022-10-24T04:07:18.627Z,11.70
2022-10-24T04:12:21.626Z,11.71
2022-10-24T04:17:24.941Z,11.73
2022-10-24T04:22:28.044Z,11.72
2022-10-24T04:27:31.250Z,11.72
2022-10-24T04:32:34.769Z,11.71
2022-10-24T04:37:37.876Z,11.74
2022-10-24T04:42:41.285Z,11.79
2022-10-24T04:47:44.589Z,11.84
2022-10-24T04:52:48.212Z,11.89
2022-10-24T04:57:51.114Z,11.90
2022-10-24T05:02:56.771Z,11.85
2022-10-24T05:08:02.042Z,11.86
2022-10-24T05:13:05.154Z,11.92
2022-10-24T05:18:08.360Z,11.94
2022-10-24T05:23:11.465Z,11.92
2022-10-24T05:28:14.464Z,11.90
2022-10-24T05:33:17.465Z,11.89
2022-10-24T05:38:20.584Z,11.91
2022-10-24T05:43:23.677Z,11.96
2022-10-24T05:48:26.685Z,12.00
2022-10-24T05:53:29.831Z,12.07
2022-10-24T05:58:33.920Z,12.06
2022-10-24T06:03:37.126Z,12.04
2022-10-24T06:08:40.244Z,12.06
2022-10-24T06:13:43.467Z,12.14
2022-10-24T06:18:46.554Z,12.19
2022-10-24T06:23:49.577Z,12.30
2022-10-24T06:28:52.768Z,12.38
2022-10-24T06:33:55.905Z,12.39
2022-10-24T06:38:58.976Z,12.38
2022-10-24T06:44:05.754Z,12.30
2022-10-24T06:49:13.481Z,12.27
2022-10-24T06:54:17.322Z,12.26
2022-10-24T06:59:20.513Z,12.31
2022-10-24T07:04:23.637Z,12.38
2022-10-24T07:09:26.826Z,12.36
2022-10-24T07:14:29.945Z,12.34
2022-10-24T07:19:37.159Z,12.36
2022-10-24T07:24:40.650Z,12.35
2022-10-24T07:29:43.759Z,12.37
2022-10-24T07:34:48.095Z,12.34
2022-10-24T07:39:51.196Z,12.35
2022-10-24T07:44:54.550Z,12.42
2022-10-24T07:49:57.629Z,12.45
2022-10-24T07:55:00.718Z,12.50
2022-10-24T08:00:06.287Z,12.57
2022-10-24T08:05:11.852Z,12.65
2022-10-24T08:10:14.867Z,12.74
2022-10-24T08:15:17.854Z,12.82
2022-10-24T08:20:21.864Z,12.89
2022-10-24T08:25:25.094Z,12.95
2022-10-24T08:30:28.211Z,13.02
2022-10-24T08:35:31.306Z,13.10
2022-10-24T08:40:34.534Z,13.14
2022-10-24T08:46:32.913Z,13.18
2022-10-24T08:51:57.843Z,13.17
2022-10-24T08:57:02.343Z,13.12
2022-10-24T09:02:13.574Z,13.19
2022-10-24T09:07:22.039Z,13.31
2022-10-24T09:12:26.582Z,13.40
2022-10-24T09:17:34.396Z,13.44
2022-10-24T09:22:39.539Z,13.42
2022-10-24T09:27:45.959Z,13.45
2022-10-24T09:32:49.548Z,13.50
2022-10-24T09:37:59.269Z,13.52
2022-10-24T09:43:19.273Z,13.55
2022-10-24T09:48:30.799Z,13.51
2022-10-24T09:53:39.372Z,13.50
2022-10-24T09:58:43.443Z,13.57
2022-10-24T10:04:10.001Z,13.58
2022-10-24T10:09:26.109Z,13.65
2022-10-24T10:14:30.327Z,13.68
2022-10-24T10:19:38.255Z,13.64
2022-10-24T10:24:46.273Z,13.63
2022-10-24T10:29:49.594Z,13.65
2022-10-24T10:35:33.864Z,13.70
2022-10-24T10:40:55.708Z,13.82
2022-10-24T10:46:17.047Z,14.01
2022-10-24T10:51:38.786Z,14.16
2022-10-24T10:56:54.519Z,14.33
2022-10-24T11:02:24.971Z,14.52
2022-10-24T11:07:50.057Z,14.47
2022-10-24T11:12:56.280Z,14.30
2022-10-24T11:18:33.090Z,14.19
2022-10-24T11:24:01.838Z,14.23
2022-10-24T11:29:40.591Z,14.30
2022-10-24T11:35:24.779Z,14.52
2022-10-24T11:40:30.799Z,14.81
2022-10-24T11:45:56.672Z,15.01
2022-10-24T11:51:15.440Z,15.05
2022-10-24T11:56:44.964Z,15.01
2022-10-24T12:01:59.641Z,15.06
2022-10-24T12:07:33.895Z,15.24
2022-10-24T12:13:15.694Z,15.23
2022-10-24T12:18:29.351Z,15.34
2022-10-24T12:23:32.860Z,15.41
2022-10-24T12:28:38.477Z,15.45
2022-10-24T12:33:44.158Z,15.39
2022-10-24T12:39:02.978Z,15.33
2022-10-24T12:44:34.381Z,15.28
2022-10-24T12:49:37.447Z,15.11
2022-10-24T12:54:44.466Z,14.98
2022-10-24T12:59:54.020Z,14.93
2022-10-24T13:05:34.187Z,14.91
2022-10-24T13:11:28.169Z,14.94
2022-10-24T13:17:05.887Z,14.94
2022-10-24T13:22:33.769Z,14.95
2022-10-24T13:27:36.893Z,14.88
2022-10-24T13:32:39.987Z,14.83
2022-10-24T13:37:50.780Z,14.88
2022-10-24T13:43:20.951Z,14.91
2022-10-24T13:48:29.345Z,14.91
2022-10-24T13:53:46.334Z,14.86
2022-10-24T13:58:49.591Z,14.80
2022-10-24T14:03:55.430Z,14.79
2022-10-24T14:09:09.516Z,14.82
2022-10-24T14:14:27.268Z,14.88
2022-10-24T14:19:33.030Z,14.91
2022-10-24T14:24:46.199Z,14.89
2022-10-24T14:30:04.291Z,14.86
2022-10-24T14:35:13.208Z,14.88
2022-10-24T14:40:18.810Z,14.93
2022-10-24T14:45:31.030Z,14.94
2022-10-24T14:50:47.459Z,14.90
2022-10-24T14:55:58.168Z,14.85
2022-10-24T15:01:03.256Z,14.81
2022-10-24T15:06:19.906Z,14.78
2022-10-24T15:11:29.627Z,14.75
2022-10-24T15:16:38.003Z,14.79
2022-10-24T15:21:44.213Z,14.85
2022-10-24T15:26:47.323Z,14.83
2022-10-24T15:31:52.644Z,14.79
2022-10-24T15:36:57.144Z,14.70
2022-10-24T15:42:00.366Z,14.65
2022-10-24T15:47:03.666Z,14.65
2022-10-24T15:52:11.661Z,14.64
2022-10-24T15:57:16.211Z,14.60
2022-10-24T16:02:23.944Z,14.58
2022-10-24T16:07:27.016Z,14.61
2022-10-24T16:12:30.222Z,14.67
2022-10-24T16:17:33.551Z,14.71
2022-10-24T16:22:36.652Z,14.76
2022-10-24T16:27:39.747Z,14.71
2022-10-24T16:32:43.095Z,14.54
2022-10-24T16:37:46.681Z,14.40
2022-10-24T16:42:55.284Z,14.27
2022-10-24T16:47:58.828Z,14.19
2022-10-24T16:53:07.138Z,14.01
2022-10-24T16:58:10.059Z,13.90
2022-10-24T17:03:13.988Z,13.77
2022-10-24T17:08:17.087Z,13.65
2022-10-24T17:13:21.014Z,13.63
2022-10-24T17:18:26.784Z,13.60
2022-10-24T17:23:30.295Z,13.59
2022-10-24T17:28:33.519Z,13.59
2022-10-24T17:33:37.394Z,13.55
2022-10-24T17:38:52.537Z,13.48
2022-10-24T17:43:56.253Z,13.37
2022-10-24T17:48:59.554Z,13.33
2022-10-24T17:54:02.655Z,13.32
2022-10-24T17:59:05.696Z,13.30
2022-10-24T18:04:08.765Z,13.34
2022-10-24T18:09:12.211Z,13.35
2022-10-24T18:14:15.695Z,13.34
2022-10-24T18:19:18.912Z,13.29
2022-10-24T18:24:21.914Z,13.29
2022-10-24T18:29:25.116Z,13.34
2022-10-24T18:34:28.332Z,13.44
2022-10-24T18:39:31.538Z,13.59
2022-10-24T18:44:36.452Z,13.63
2022-10-24T18:49:40.517Z,13.67
2022-10-24T18:55:02.326Z,13.63
2022-10-24T19:00:07.979Z,13.57
2022-10-24T19:05:24.899Z,13.54
2022-10-24T19:10:28.982Z,13.45
2022-10-24T19:15:33.049Z,13.36
2022-10-24T19:20:36.327Z,13.31
2022-10-24T19:25:41.882Z,13.39
2022-10-24T19:30:46.708Z,13.49
2022-10-24T19:35:50.067Z,13.62
2022-10-24T19:40:55.030Z,13.66
2022-10-24T19:46:14.826Z,13.65
2022-10-24T19:51:23.434Z,13.55
2022-10-24T19:56:28.899Z,13.50
2022-10-24T20:01:32.206Z,13.56
2022-10-24T20:06:35.409Z,13.56
2022-10-24T20:11:38.613Z,13.53
2022-10-24T20:16:41.624Z,13.46
2022-10-24T20:21:44.823Z,13.44
2022-10-24T20:26:47.846Z,13.43
2022-10-24T20:31:50.941Z,13.48
2022-10-24T20:36:54.041Z,13.52
2022-10-24T20:41:57.084Z,13.57
2022-10-24T20:47:00.285Z,13.52
2022-10-24T20:52:03.735Z,13.49
2022-10-24T20:57:06.769Z,13.52
2022-10-24T21:02:10.777Z,13.61
2022-10-24T21:07:13.908Z,13.62
2022-10-24T21:12:16.937Z,13.58
2022-10-24T21:17:20.281Z,13.59
2022-10-24T21:22:23.344Z,13.62
2022-10-24T21:27:26.432Z,13.60
2022-10-24T21:32:29.441Z,13.59
2022-10-24T21:37:32.951Z,13.63
2022-10-24T21:42:35.957Z,13.75
2022-10-24T21:47:39.063Z,13.79
2022-10-24T21:52:42.065Z,13.69
2022-10-24T21:57:45.378Z,13.68
2022-10-24T22:02:48.837Z,13.71
2022-10-24T22:07:52.410Z,13.70
2022-10-24T22:12:55.717Z,13.77
2022-10-24T22:17:58.825Z,13.85
2022-10-24T22:23:01.828Z,13.89
2022-10-24T22:28:05.242Z,13.88
2022-10-24T22:33:36.211Z,13.92
2022-10-24T22:38:40.129Z,14.03
2022-10-24T22:43:43.750Z,14.10
2022-10-24T22:48:52.415Z,14.16
2022-10-24T22:53:56.307Z,14.23
2022-10-24T22:59:01.739Z,14.25
2022-10-24T23:04:51.487Z,14.27
2022-10-24T23:09:54.983Z,14.24
2022-10-24T23:14:59.290Z,14.26
2022-10-24T23:20:03.139Z,14.28
2022-10-24T23:25:07.298Z,14.30
2022-10-24T23:30:23.474Z,14.29
2022-10-24T23:35:27.096Z,14.24
2022-10-24T23:40:38.425Z,14.18
2022-10-24T23:46:05.263Z,14.16
2022-10-24T23:51:25.674Z,14.17
2022-10-24T23:56:30.148Z,14.19
